Wetterdaten: Woche 11.05.09 - 17.05.09 (KW20)
Datum Zeit Temp. Innen Temp. Aussen Feuchte Inne Feuchte Auss Luftdruck Regen ab 0,1 Wind
11.05.2009 00:00 21,5 C 15,4 C 51 % 58 % 1016,3 hPa 0,0 l/m 0,0 km/h (0 Bft)
11.05.2009 01:00 21,4 C 15,5 C 50 % 59 % 1016,3 hPa 0,0 l/m 0,0 km/h (0 Bft)
11.05.2009 02:00 21,4 C 15,1 C 51 % 61 % 1016,3 hPa 0,0 l/m 0,0 km/h (0 Bft)
11.05.2009 03:00 21,3 C 14,5 C 51 % 64 % 1016,3 hPa 0,0 l/m 0,0 km/h (0 Bft)
11.05.2009 04:00 21,3 C 14,0 C 51 % 67 % 1016,3 hPa 0,0 l/m 0,0 km/h (0 Bft)
11.05.2009 05:00 21,2 C 13,4 C 52 % 70 % 1016,4 hPa 0,0 l/m 0,0 km/h (0 Bft)
11.05.2009 06:00 21,1 C 12,9 C 52 % 73 % 1016,4 hPa 0,0 l/m 0,0 km/h (0 Bft)
11.05.2009 07:00 21,0 C 12,5 C 52 % 77 % 1016,9 hPa 0,5 l/m 0,0 km/h (0 Bft)
11.05.2009 08:00 21,0 C 11,8 C 52 % 80 % 1017,4 hPa 0,5 l/m 0,0 km/h (0 Bft)
11.05.2009 09:00 21,1 C 11,4 C 52 % 83 % 1017,4 hPa 0,5 l/m 0,0 km/h (0 Bft)
11.05.2009 10:00 20,9 C 11,5 C 52 % 84 % 1017,4 hPa 0,5 l/m 0,0 km/h (0 Bft)
11.05.2009 11:00 20,7 C 11,8 C 53 % 85 % 1017,5 hPa 0,0 l/m 0,0 km/h (0 Bft)
11.05.2009 12:00 20,5 C 12,2 C 54 % 85 % 1018,4 hPa 0,5 l/m 0,0 km/h (0 Bft)
11.05.2009 13:00 20,5 C 13,4 C 54 % 84 % 1018,4 hPa 0,0 l/m 0,0 km/h (0 Bft)
11.05.2009 14:00 20,4 C 14,3 C 54 % 79 % 1018,3 hPa 0,0 l/m 0,2 km/h (0 Bft)
11.05.2009 15:00 20,4 C 13,9 C 54 % 78 % 1018,4 hPa 0,0 l/m 0,0 km/h (0 Bft)
11.05.2009 16:00 20,4 C 14,5 C 53 % 74 % 1018,3 hPa 0,0 l/m 0,0 km/h (0 Bft)
11.05.2009 17:00 20,4 C 15,4 C 53 % 71 % 1018,3 hPa 0,0 l/m 0,0 km/h (0 Bft)
11.05.2009 18:00 20,5 C 16,0 C 52 % 68 % 1018,3 hPa 0,0 l/m 0,0 km/h (0 Bft)
11.05.2009 19:00 20,6 C 16,0 C 54 % 66 % 1018,3 hPa 0,0 l/m 0,0 km/h (0 Bft)
11.05.2009 20:00 20,7 C 15,0 C 57 % 68 % 1018,3 hPa 0,0 l/m 0,0 km/h (0 Bft)
11.05.2009 21:00 20,6 C 13,5 C 56 % 70 % 1018,8 hPa 0,0 l/m 0,0 km/h (0 Bft)
11.05.2009 22:00 20,5 C 12,7 C 55 % 72 % 1019,4 hPa 0,0 l/m 0,0 km/h (0 Bft)
11.05.2009 23:00 20,4 C 12,2 C 54 % 71 % 1019,6 hPa 0,0 l/m 0,0 km/h (0 Bft)
12.05.2009 00:00 20,3 C 11,2 C 52 % 72 % 1020,4 hPa 0,0 l/m 0,1 km/h (0 Bft)
12.05.2009 01:00 20,2 C 10,2 C 52 % 74 % 1020,4 hPa 0,0 l/m 0,0 km/h (0 Bft)
12.05.2009 02:00 20,1 C 9,2 C 51 % 75 % 1020,4 hPa 0,0 l/m 0,0 km/h (0 Bft)
12.05.2009 03:00 20,0 C 8,3 C 51 % 78 % 1020,4 hPa 0,0 l/m 0,0 km/h (0 Bft)
12.05.2009 04:00 19,9 C 7,7 C 50 % 79 % 1020,5 hPa 0,0 l/m 0,0 km/h (0 Bft)
12.05.2009 05:00 19,8 C 7,3 C 50 % 81 % 1020,5 hPa 0,0 l/m 0,0 km/h (0 Bft)
12.05.2009 06:00 19,6 C 7,4 C 50 % 82 % 1020,5 hPa 0,0 l/m 0,0 km/h (0 Bft)
12.05.2009 07:00 19,6 C 8,1 C 49 % 83 % 1019,8 hPa 0,0 l/m 0,0 km/h (0 Bft)
12.05.2009 08:00 19,5 C 9,6 C 49 % 80 % 1019,4 hPa 0,0 l/m 0,0 km/h (0 Bft)
12.05.2009 09:00 19,5 C 11,6 C 49 % 76 % 1019,4 hPa 0,0 l/m 0,1 km/h (0 Bft)
12.05.2009 10:00 19,6 C 13,9 C 50 % 71 % 1019,4 hPa 0,0 l/m 0,4 km/h (0 Bft)
12.05.2009 11:00 19,6 C 16,0 C 50 % 66 % 1019,2 hPa 0,0 l/m 2,2 km/h (1 Bft)
12.05.2009 12:00 19,7 C 17,2 C 50 % 61 % 1018,4 hPa 0,0 l/m 2,4 km/h (1 Bft)
12.05.2009 13:00 19,8 C 17,3 C 50 % 59 % 1018,3 hPa 0,0 l/m 0,3 km/h (0 Bft)
12.05.2009 14:00 19,8 C 16,7 C 50 % 58 % 1018,3 hPa 0,0 l/m 0,4 km/h (0 Bft)
12.05.2009 15:00 19,9 C 16,4 C 50 % 59 % 1018,3 hPa 0,0 l/m 0,2 km/h (0 Bft)
12.05.2009 16:00 20,0 C 16,1 C 50 % 62 % 1018,3 hPa 0,0 l/m 0,0 km/h (0 Bft)
12.05.2009 17:00 20,0 C 15,4 C 51 % 65 % 1018,3 hPa 0,0 l/m 0,6 km/h (0 Bft)
12.05.2009 18:00 20,0 C 14,2 C 51 % 72 % 1018,4 hPa 0,0 l/m 0,1 km/h (0 Bft)
12.05.2009 19:00 20,0 C 13,1 C 52 % 76 % 1018,4 hPa 0,5 l/m 0,0 km/h (0 Bft)
12.05.2009 20:00 20,0 C 12,8 C 52 % 76 % 1018,4 hPa 0,0 l/m 0,0 km/h (0 Bft)
12.05.2009 21:00 20,0 C 12,9 C 51 % 73 % 1018,4 hPa 0,0 l/m 0,1 km/h (0 Bft)
12.05.2009 22:00 20,0 C 13,3 C 51 % 68 % 1018,4 hPa 0,0 l/m 0,1 km/h (0 Bft)
12.05.2009 23:00 20,0 C 13,5 C 51 % 66 % 1018,4 hPa 0,0 l/m 0,0 km/h (0 Bft)
13.05.2009 00:00 20,0 C 13,5 C 50 % 63 % 1018,4 hPa 0,0 l/m 0,0 km/h (0 Bft)
13.05.2009 01:00 20,0 C 13,2 C 50 % 63 % 1018,4 hPa 0,0 l/m 0,0 km/h (0 Bft)
13.05.2009 02:00 19,9 C 13,0 C 49 % 62 % 1018,4 hPa 0,0 l/m 0,0 km/h (0 Bft)
13.05.2009 03:00 19,9 C 12,7 C 49 % 63 % 1018,4 hPa 0,0 l/m 0,0 km/h (0 Bft)
13.05.2009 04:00 20,3 C 12,4 C 49 % 65 % 1017,8 hPa 0,0 l/m 0,0 km/h (0 Bft)
13.05.2009 05:00 20,4 C 12,2 C 48 % 65 % 1017,4 hPa 0,0 l/m 0,0 km/h (0 Bft)
13.05.2009 06:00 20,1 C 12,0 C 48 % 66 % 1017,4 hPa 0,0 l/m 0,0 km/h (0 Bft)
13.05.2009 07:00 20,0 C 12,1 C 48 % 67 % 1017,4 hPa 0,0 l/m 0,0 km/h (0 Bft)
13.05.2009 08:00 19,9 C 12,7 C 48 % 67 % 1017,4 hPa 0,0 l/m 0,0 km/h (0 Bft)
13.05.2009 09:00 19,9 C 13,9 C 49 % 67 % 1017,4 hPa 0,0 l/m 0,0 km/h (0 Bft)
13.05.2009 10:00 19,9 C 15,6 C 49 % 64 % 1017,3 hPa 0,0 l/m 0,2 km/h (0 Bft)
13.05.2009 11:00 20,0 C 17,6 C 49 % 60 % 1016,8 hPa 0,0 l/m 2,5 km/h (1 Bft)
13.05.2009 12:00 20,0 C 19,6 C 50 % 58 % 1016,3 hPa 0,0 l/m 6,9 km/h (2 Bft)
13.05.2009 13:00 20,2 C 20,4 C 50 % 55 % 1015,9 hPa 0,0 l/m 1,6 km/h (1 Bft)
13.05.2009 14:00 20,3 C 20,3 C 50 % 57 % 1015,2 hPa 0,0 l/m 0,9 km/h (0 Bft)
13.05.2009 15:00 20,4 C 21,5 C 50 % 55 % 1014,4 hPa 0,0 l/m 4,3 km/h (1 Bft)
13.05.2009 16:00 20,7 C 21,9 C 50 % 54 % 1014,0 hPa 0,0 l/m 3,3 km/h (1 Bft)
13.05.2009 17:00 20,7 C 21,3 C 50 % 55 % 1013,2 hPa 0,0 l/m 0,5 km/h (0 Bft)
13.05.2009 18:00 20,8 C 20,9 C 50 % 56 % 1013,2 hPa 0,0 l/m 0,0 km/h (0 Bft)
13.05.2009 19:00 20,9 C 20,0 C 51 % 57 % 1012,8 hPa 0,0 l/m 0,0 km/h (0 Bft)
13.05.2009 20:00 21,0 C 18,9 C 51 % 60 % 1012,3 hPa 0,0 l/m 0,0 km/h (0 Bft)
13.05.2009 21:00 21,0 C 17,7 C 51 % 63 % 1012,3 hPa 0,0 l/m 0,0 km/h (0 Bft)
13.05.2009 22:00 21,0 C 16,7 C 51 % 65 % 1012,5 hPa 0,0 l/m 0,0 km/h (0 Bft)
13.05.2009 23:00 21,0 C 16,0 C 51 % 67 % 1012,3 hPa 0,0 l/m 0,0 km/h (0 Bft)
14.05.2009 00:00 20,9 C 15,1 C 51 % 69 % 1012,3 hPa 0,0 l/m 0,0 km/h (0 Bft)
14.05.2009 01:00 20,9 C 14,4 C 51 % 71 % 1011,5 hPa 0,0 l/m 0,0 km/h (0 Bft)
14.05.2009 02:00 20,8 C 13,7 C 52 % 72 % 1011,3 hPa 0,0 l/m 0,0 km/h (0 Bft)
14.05.2009 03:00 20,7 C 13,1 C 52 % 73 % 1010,6 hPa 0,0 l/m 0,0 km/h (0 Bft)
14.05.2009 04:00 20,6 C 12,6 C 52 % 74 % 1010,3 hPa 0,0 l/m 0,0 km/h (0 Bft)
14.05.2009 05:00 20,5 C 12,6 C 52 % 75 % 1010,2 hPa 0,0 l/m 0,0 km/h (0 Bft)
14.05.2009 06:00 20,5 C 12,6 C 51 % 75 % 1009,4 hPa 0,0 l/m 0,0 km/h (0 Bft)
14.05.2009 07:00 20,4 C 12,8 C 51 % 74 % 1009,3 hPa 0,0 l/m 0,0 km/h (0 Bft)
14.05.2009 08:00 20,4 C 13,8 C 51 % 73 % 1009,3 hPa 0,0 l/m 0,0 km/h (0 Bft)
14.05.2009 09:00 20,4 C 15,3 C 51 % 70 % 1009,1 hPa 0,0 l/m 0,0 km/h (0 Bft)
14.05.2009 10:00 20,4 C 16,5 C 52 % 67 % 1008,3 hPa 0,0 l/m 0,4 km/h (0 Bft)
14.05.2009 11:00 20,4 C 18,4 C 52 % 65 % 1008,2 hPa 0,0 l/m 1,9 km/h (1 Bft)
14.05.2009 12:00 20,4 C 20,3 C 52 % 61 % 1008,1 hPa 0,0 l/m 6,9 km/h (2 Bft)
14.05.2009 13:00 20,5 C 20,7 C 52 % 60 % 1007,5 hPa 0,0 l/m 2,1 km/h (1 Bft)
14.05.2009 14:00 20,6 C 20,8 C 52 % 60 % 1007,2 hPa 0,0 l/m 0,4 km/h (0 Bft)
14.05.2009 15:00 20,6 C 20,7 C 53 % 62 % 1006,4 hPa 0,0 l/m 0,3 km/h (0 Bft)
14.05.2009 16:00 20,8 C 21,8 C 53 % 60 % 1006,2 hPa 0,0 l/m 2,4 km/h (1 Bft)
14.05.2009 17:00 21,0 C 21,3 C 53 % 59 % 1005,3 hPa 0,0 l/m 3,1 km/h (1 Bft)
14.05.2009 18:00 21,0 C 20,8 C 53 % 61 % 1005,2 hPa 0,0 l/m 0,3 km/h (0 Bft)
14.05.2009 19:00 21,1 C 19,6 C 53 % 63 % 1005,1 hPa 0,0 l/m 1,5 km/h (1 Bft)
14.05.2009 20:00 21,1 C 18,3 C 53 % 66 % 1005,1 hPa 0,0 l/m 0,4 km/h (0 Bft)
14.05.2009 21:00 21,1 C 17,3 C 53 % 70 % 1005,2 hPa 0,0 l/m 0,1 km/h (0 Bft)
14.05.2009 22:00 21,1 C 16,3 C 54 % 74 % 1005,3 hPa 0,0 l/m 0,0 km/h (0 Bft)
14.05.2009 23:00 21,1 C 15,4 C 54 % 78 % 1005,3 hPa 0,0 l/m 0,0 km/h (0 Bft)
15.05.2009 00:00 21,1 C 14,8 C 55 % 81 % 1005,0 hPa 0,0 l/m 0,0 km/h (0 Bft)
15.05.2009 01:00 21,0 C 14,3 C 56 % 82 % 1004,3 hPa 0,5 l/m 0,4 km/h (0 Bft)
15.05.2009 02:00 20,9 C 13,8 C 55 % 82 % 1003,6 hPa 0,0 l/m 0,1 km/h (0 Bft)
15.05.2009 03:00 20,8 C 13,5 C 55 % 84 % 1003,3 hPa 0,0 l/m 0,2 km/h (0 Bft)
15.05.2009 04:00 20,8 C 13,5 C 55 % 84 % 1003,3 hPa 0,0 l/m 0,1 km/h (0 Bft)
15.05.2009 05:00 20,7 C 13,5 C 56 % 84 % 1003,3 hPa 0,0 l/m 0,0 km/h (0 Bft)
15.05.2009 06:00 20,6 C 13,7 C 56 % 85 % 1003,7 hPa 0,0 l/m 0,0 km/h (0 Bft)
15.05.2009 07:00 20,6 C 14,2 C 56 % 85 % 1004,3 hPa 0,0 l/m 0,1 km/h (0 Bft)
15.05.2009 08:00 20,5 C 14,8 C 56 % 83 % 1004,3 hPa 0,0 l/m 0,1 km/h (0 Bft)
15.05.2009 09:00 20,5 C 15,8 C 57 % 81 % 1004,5 hPa 0,0 l/m 0,8 km/h (0 Bft)
15.05.2009 10:00 20,5 C 17,5 C 56 % 75 % 1004,5 hPa 0,0 l/m 1,1 km/h (1 Bft)
15.05.2009 11:00 20,6 C 18,9 C 56 % 69 % 1004,9 hPa 0,0 l/m 2,8 km/h (1 Bft)
15.05.2009 12:00 20,6 C 19,6 C 56 % 66 % 1005,1 hPa 0,0 l/m 0,7 km/h (0 Bft)
15.05.2009 13:00 20,6 C 19,8 C 56 % 64 % 1005,2 hPa 0,0 l/m 2,0 km/h (1 Bft)
15.05.2009 14:00 20,7 C 19,6 C 56 % 64 % 1005,2 hPa 0,0 l/m 0,2 km/h (0 Bft)
15.05.2009 15:00 20,7 C 18,6 C 56 % 65 % 1005,2 hPa 0,0 l/m 0,8 km/h (0 Bft)
15.05.2009 16:00 20,8 C 17,3 C 56 % 68 % 1005,2 hPa 0,0 l/m 0,7 km/h (0 Bft)
15.05.2009 17:00 20,8 C 16,8 C 56 % 73 % 1005,6 hPa 0,0 l/m 0,3 km/h (0 Bft)
15.05.2009 18:00 20,8 C 16,0 C 56 % 75 % 1006,3 hPa 0,5 l/m 0,1 km/h (0 Bft)
15.05.2009 19:00 20,8 C 15,1 C 56 % 77 % 1006,3 hPa 0,0 l/m 0,4 km/h (0 Bft)
15.05.2009 20:00 20,7 C 14,3 C 57 % 79 % 1006,3 hPa 0,5 l/m 0,0 km/h (0 Bft)
15.05.2009 21:00 20,7 C 13,5 C 56 % 81 % 1006,9 hPa 0,0 l/m 0,5 km/h (0 Bft)
15.05.2009 22:00 20,6 C 12,7 C 56 % 81 % 1008,3 hPa 0,5 l/m 0,9 km/h (0 Bft)
15.05.2009 23:00 20,5 C 11,5 C 55 % 81 % 1008,3 hPa 0,0 l/m 0,2 km/h (0 Bft)
16.05.2009 00:00 20,4 C 10,5 C 55 % 82 % 1009,3 hPa 0,0 l/m 0,1 km/h (0 Bft)
16.05.2009 01:00 20,3 C 9,6 C 54 % 83 % 1009,9 hPa 0,0 l/m 0,0 km/h (0 Bft)
16.05.2009 02:00 20,2 C 9,4 C 54 % 84 % 1010,4 hPa 0,0 l/m 0,0 km/h (0 Bft)
16.05.2009 03:00 20,0 C 8,7 C 54 % 84 % 1010,4 hPa 0,0 l/m 0,0 km/h (0 Bft)
16.05.2009 04:00 20,0 C 7,8 C 53 % 84 % 1010,4 hPa 0,0 l/m 0,0 km/h (0 Bft)
16.05.2009 05:00 19,8 C 7,5 C 53 % 85 % 1010,5 hPa 0,0 l/m 0,0 km/h (0 Bft)
16.05.2009 06:00 19,7 C 7,8 C 52 % 86 % 1011,2 hPa 0,0 l/m 0,0 km/h (0 Bft)
16.05.2009 07:00 19,6 C 8,7 C 52 % 85 % 1011,4 hPa 0,0 l/m 0,5 km/h (0 Bft)
16.05.2009 08:00 19,6 C 10,0 C 52 % 80 % 1012,3 hPa 0,0 l/m 0,1 km/h (0 Bft)
16.05.2009 09:00 19,5 C 11,4 C 51 % 75 % 1012,4 hPa 0,0 l/m 1,0 km/h (0 Bft)
16.05.2009 10:00 19,5 C 13,4 C 51 % 68 % 1012,3 hPa 0,0 l/m 1,2 km/h (1 Bft)
16.05.2009 11:00 19,5 C 15,3 C 51 % 61 % 1012,3 hPa 0,0 l/m 3,4 km/h (1 Bft)
16.05.2009 12:00 19,5 C 16,2 C 51 % 57 % 1012,3 hPa 0,0 l/m 2,6 km/h (1 Bft)
16.05.2009 13:00 19,6 C 16,5 C 51 % 58 % 1012,3 hPa 0,0 l/m 2,1 km/h (1 Bft)
16.05.2009 14:00 19,7 C 17,5 C 51 % 56 % 1012,3 hPa 0,0 l/m 1,1 km/h (1 Bft)
16.05.2009 15:00 19,7 C 17,2 C 51 % 57 % 1012,3 hPa 0,0 l/m 2,0 km/h (1 Bft)
16.05.2009 16:00 19,9 C 17,4 C 51 % 58 % 1012,3 hPa 0,0 l/m 1,8 km/h (1 Bft)
16.05.2009 17:00 20,0 C 18,5 C 51 % 55 % 1012,3 hPa 0,0 l/m 2,5 km/h (1 Bft)
16.05.2009 18:00 20,0 C 17,9 C 51 % 57 % 1012,3 hPa 0,0 l/m 0,5 km/h (0 Bft)
16.05.2009 19:00 20,1 C 17,5 C 51 % 58 % 1012,8 hPa 0,0 l/m 0,1 km/h (0 Bft)
16.05.2009 20:00 20,1 C 16,4 C 51 % 62 % 1013,3 hPa 0,0 l/m 0,5 km/h (0 Bft)
16.05.2009 21:00 20,1 C 14,7 C 52 % 68 % 1013,7 hPa 0,0 l/m 0,0 km/h (0 Bft)
16.05.2009 22:00 20,1 C 13,4 C 53 % 72 % 1014,3 hPa 0,0 l/m 0,0 km/h (0 Bft)
16.05.2009 23:00 20,1 C 12,8 C 53 % 74 % 1013,5 hPa 0,0 l/m 0,1 km/h (0 Bft)
17.05.2009 00:00 20,0 C 12,9 C 53 % 74 % 1014,3 hPa 0,0 l/m 0,0 km/h (0 Bft)
17.05.2009 01:00 20,0 C 12,6 C 54 % 77 % 1013,5 hPa 0,0 l/m 0,0 km/h (0 Bft)
17.05.2009 02:00 20,0 C 12,2 C 54 % 79 % 1013,1 hPa 0,5 l/m 0,0 km/h (0 Bft)
17.05.2009 03:00 19,9 C 12,1 C 54 % 81 % 1012,4 hPa 0,0 l/m 0,0 km/h (0 Bft)
17.05.2009 04:00 19,9 C 12,1 C 54 % 81 % 1012,1 hPa 0,0 l/m 0,0 km/h (0 Bft)
17.05.2009 05:00 19,8 C 12,0 C 54 % 82 % 1011,9 hPa 0,5 l/m 0,0 km/h (0 Bft)
17.05.2009 06:00 19,8 C 11,9 C 55 % 82 % 1012,4 hPa 2,1 l/m 0,0 km/h (0 Bft)
17.05.2009 07:00 19,8 C 11,9 C 55 % 84 % 1012,8 hPa 2,1 l/m 0,0 km/h (0 Bft)
17.05.2009 08:00 19,7 C 12,3 C 56 % 85 % 1012,3 hPa 0,0 l/m 0,0 km/h (0 Bft)
17.05.2009 09:00 19,7 C 12,8 C 56 % 85 % 1011,3 hPa 0,0 l/m 0,0 km/h (0 Bft)
17.05.2009 10:00 19,7 C 13,2 C 57 % 86 % 1011,3 hPa 1,6 l/m 0,0 km/h (0 Bft)
17.05.2009 11:00 19,7 C 13,3 C 57 % 85 % 1011,3 hPa 0,5 l/m 0,0 km/h (0 Bft)
17.05.2009 12:00 19,7 C 14,1 C 57 % 86 % 1011,3 hPa 0,0 l/m 0,3 km/h (0 Bft)
17.05.2009 13:00 19,7 C 15,4 C 57 % 84 % 1011,3 hPa 0,0 l/m 0,4 km/h (0 Bft)
17.05.2009 14:00 19,8 C 17,1 C 57 % 73 % 1011,6 hPa 0,0 l/m 0,8 km/h (0 Bft)
17.05.2009 15:00 19,9 C 18,4 C 56 % 64 % 1012,3 hPa 0,0 l/m 2,9 km/h (1 Bft)
17.05.2009 16:00 20,1 C 19,6 C 55 % 57 % 1012,2 hPa 0,0 l/m 3,1 km/h (1 Bft)
17.05.2009 17:00 20,3 C 19,4 C 54 % 54 % 1012,2 hPa 0,0 l/m 3,8 km/h (1 Bft)
17.05.2009 18:00 20,4 C 18,7 C 53 % 55 % 1012,3 hPa 0,0 l/m 1,9 km/h (1 Bft)
17.05.2009 19:00 20,4 C 17,4 C 53 % 58 % 1012,4 hPa 0,0 l/m 0,4 km/h (0 Bft)
17.05.2009 20:00 20,5 C 16,3 C 53 % 61 % 1013,3 hPa 0,0 l/m 0,1 km/h (0 Bft)
17.05.2009 21:00 20,5 C 15,0 C 53 % 64 % 1014,3 hPa 0,0 l/m 0,0 km/h (0 Bft)
17.05.2009 22:00 20,4 C 14,2 C 52 % 67 % 1014,3 hPa 0,0 l/m 0,0 km/h (0 Bft)
17.05.2009 23:00 20,4 C 14,0 C 52 % 68 % 1014,3 hPa 0,0 l/m 0,1 km/h (0 Bft)
Min-Datum _ 12.05.09 12.05.09 13.05.09 17.05.09 15.05.09 - 11.05.09
_ Min-Zeit 07:58 05:48 05:40 17:48 02:16 - 00:00
Minimum _ 19,5 C 7,2 C 47 % 52 % 1003,3 hPa - 0,0 km/h (0 Bft)
Max-Datum _ 11.05.09 13.05.09 11.05.09 16.05.09 12.05.09 17.05.09 17.05.09
_ Max-Zeit 00:00 16:18 20:08 05:56 03:36 06:48 15:48
Maximum _ 21,5 C 22,1 C 57 % 86 % 1020,5 hPa 2,1 l/m 45,2 km/h
O (6 Bft)
Durchschnitt _ 20,3 C 14,7 C 53 % 71 % 1012,9 hPa #12,4 l/m 0,6 km/h (0 Bft)
© 2012 W. Hausmann